sensor_id;sensor_type;location;lat;lon;timestamp;P1;durP1;ratioP1;P2;durP2;ratioP2
75526;SDS011;64107;49.248;7.006;2023-08-01T00:01:31;5.35;;;3.40;;
75526;SDS011;64107;49.248;7.006;2023-08-01T00:03:57;4.50;;;2.33;;
75526;SDS011;64107;49.248;7.006;2023-08-01T00:06:24;6.05;;;3.30;;
75526;SDS011;64107;49.248;7.006;2023-08-01T00:08:50;5.65;;;2.10;;
75526;SDS011;64107;49.248;7.006;2023-08-01T00:11:16;8.43;;;4.20;;
75526;SDS011;64107;49.248;7.006;2023-08-01T00:13:42;12.55;;;4.57;;
75526;SDS011;64107;49.248;7.006;2023-08-01T00:16:08;8.10;;;3.90;;
75526;SDS011;64107;49.248;7.006;2023-08-01T00:18:35;5.43;;;2.53;;
75526;SDS011;64107;49.248;7.006;2023-08-01T00:21:01;4.97;;;2.97;;
75526;SDS011;64107;49.248;7.006;2023-08-01T00:23:30;4.65;;;2.00;;
75526;SDS011;64107;49.248;7.006;2023-08-01T00:25:56;7.07;;;3.50;;
75526;SDS011;64107;49.248;7.006;2023-08-01T00:28:22;6.05;;;3.08;;
75526;SDS011;64107;49.248;7.006;2023-08-01T00:30:48;8.73;;;3.53;;
75526;SDS011;64107;49.248;7.006;2023-08-01T00:33:14;4.85;;;2.88;;
75526;SDS011;64107;49.248;7.006;2023-08-01T00:35:40;10.27;;;5.82;;
75526;SDS011;64107;49.248;7.006;2023-08-01T00:38:07;8.05;;;3.13;;
75526;SDS011;64107;49.248;7.006;2023-08-01T00:40:33;6.80;;;4.28;;
75526;SDS011;64107;49.248;7.006;2023-08-01T00:42:59;6.85;;;4.20;;
75526;SDS011;64107;49.248;7.006;2023-08-01T00:45:26;5.65;;;2.78;;
75526;SDS011;64107;49.248;7.006;2023-08-01T00:47:52;6.10;;;3.60;;
75526;SDS011;64107;49.248;7.006;2023-08-01T00:50:19;6.35;;;3.10;;
75526;SDS011;64107;49.248;7.006;2023-08-01T00:52:46;7.35;;;3.00;;
75526;SDS011;64107;49.248;7.006;2023-08-01T00:55:14;3.83;;;2.33;;
75526;SDS011;64107;49.248;7.006;2023-08-01T00:57:41;5.68;;;2.42;;
75526;SDS011;64107;49.248;7.006;2023-08-01T01:00:07;11.15;;;3.03;;
75526;SDS011;64107;49.248;7.006;2023-08-01T01:02:34;7.53;;;2.55;;
75526;SDS011;64107;49.248;7.006;2023-08-01T01:05:01;5.00;;;2.95;;
75526;SDS011;64107;49.248;7.006;2023-08-01T01:07:28;10.35;;;3.40;;
75526;SDS011;64107;49.248;7.006;2023-08-01T01:09:54;10.35;;;2.33;;
75526;SDS011;64107;49.248;7.006;2023-08-01T01:12:20;6.85;;;3.25;;
75526;SDS011;64107;49.248;7.006;2023-08-01T01:14:47;7.57;;;2.80;;
75526;SDS011;64107;49.248;7.006;2023-08-01T01:17:13;5.45;;;3.65;;
75526;SDS011;64107;49.248;7.006;2023-08-01T01:19:39;7.72;;;3.85;;
75526;SDS011;64107;49.248;7.006;2023-08-01T01:22:06;3.47;;;2.30;;
75526;SDS011;64107;49.248;7.006;2023-08-01T01:24:33;8.20;;;3.85;;
75526;SDS011;64107;49.248;7.006;2023-08-01T01:27:01;7.43;;;3.38;;
75526;SDS011;64107;49.248;7.006;2023-08-01T01:29:28;7.82;;;4.03;;
75526;SDS011;64107;49.248;7.006;2023-08-01T01:31:55;8.98;;;3.63;;
75526;SDS011;64107;49.248;7.006;2023-08-01T01:34:22;7.60;;;3.78;;
75526;SDS011;64107;49.248;7.006;2023-08-01T01:36:48;7.65;;;3.10;;
75526;SDS011;64107;49.248;7.006;2023-08-01T01:39:14;4.88;;;2.58;;
75526;SDS011;64107;49.248;7.006;2023-08-01T01:41:40;8.75;;;3.70;;
75526;SDS011;64107;49.248;7.006;2023-08-01T01:44:06;6.00;;;3.30;;
75526;SDS011;64107;49.248;7.006;2023-08-01T01:46:32;6.63;;;3.05;;
75526;SDS011;64107;49.248;7.006;2023-08-01T01:48:58;8.35;;;3.30;;
75526;SDS011;64107;49.248;7.006;2023-08-01T01:51:25;3.42;;;2.20;;
75526;SDS011;64107;49.248;7.006;2023-08-01T01:53:51;4.50;;;2.25;;
75526;SDS011;64107;49.248;7.006;2023-08-01T01:56:17;6.45;;;3.40;;
75526;SDS011;64107;49.248;7.006;2023-08-01T01:58:43;7.25;;;3.85;;
75526;SDS011;64107;49.248;7.006;2023-08-01T02:01:09;11.05;;;2.90;;
75526;SDS011;64107;49.248;7.006;2023-08-01T02:03:36;9.48;;;3.10;;
75526;SDS011;64107;49.248;7.006;2023-08-01T02:06:02;2.78;;;1.90;;
75526;SDS011;64107;49.248;7.006;2023-08-01T02:08:28;8.88;;;3.10;;
75526;SDS011;64107;49.248;7.006;2023-08-01T02:10:55;5.70;;;2.05;;
75526;SDS011;64107;49.248;7.006;2023-08-01T02:13:23;9.23;;;3.45;;
75526;SDS011;64107;49.248;7.006;2023-08-01T02:15:50;4.35;;;2.65;;
75526;SDS011;64107;49.248;7.006;2023-08-01T02:18:16;5.93;;;2.38;;
75526;SDS011;64107;49.248;7.006;2023-08-01T02:20:42;7.80;;;2.75;;
75526;SDS011;64107;49.248;7.006;2023-08-01T02:23:08;6.82;;;2.35;;
75526;SDS011;64107;49.248;7.006;2023-08-01T02:25:40;3.78;;;2.47;;
75526;SDS011;64107;49.248;7.006;2023-08-01T02:28:07;5.53;;;2.55;;
75526;SDS011;64107;49.248;7.006;2023-08-01T02:30:34;4.65;;;3.30;;
75526;SDS011;64107;49.248;7.006;2023-08-01T02:33:00;4.90;;;2.38;;
75526;SDS011;64107;49.248;7.006;2023-08-01T02:35:27;2.95;;;1.98;;
75526;SDS011;64107;49.248;7.006;2023-08-01T02:37:53;5.85;;;2.08;;
75526;SDS011;64107;49.248;7.006;2023-08-01T02:40:20;5.82;;;2.88;;
75526;SDS011;64107;49.248;7.006;2023-08-01T02:42:46;5.85;;;2.60;;
75526;SDS011;64107;49.248;7.006;2023-08-01T02:45:12;5.53;;;2.50;;
75526;SDS011;64107;49.248;7.006;2023-08-01T02:47:38;3.38;;;2.25;;
75526;SDS011;64107;49.248;7.006;2023-08-01T02:50:05;3.42;;;1.90;;
75526;SDS011;64107;49.248;7.006;2023-08-01T02:52:31;8.80;;;3.60;;
75526;SDS011;64107;49.248;7.006;2023-08-01T02:54:57;6.63;;;2.47;;
75526;SDS011;64107;49.248;7.006;2023-08-01T02:57:23;5.53;;;2.38;;
75526;SDS011;64107;49.248;7.006;2023-08-01T02:59:49;7.47;;;1.80;;
75526;SDS011;64107;49.248;7.006;2023-08-01T03:02:16;3.83;;;2.53;;
75526;SDS011;64107;49.248;7.006;2023-08-01T03:04:42;4.90;;;2.25;;
75526;SDS011;64107;49.248;7.006;2023-08-01T03:07:08;6.10;;;2.95;;
75526;SDS011;64107;49.248;7.006;2023-08-01T03:09:34;7.53;;;4.53;;
75526;SDS011;64107;49.248;7.006;2023-08-01T03:12:00;5.47;;;2.95;;
75526;SDS011;64107;49.248;7.006;2023-08-01T03:14:26;3.53;;;2.50;;
75526;SDS011;64107;49.248;7.006;2023-08-01T03:16:52;5.10;;;3.33;;
75526;SDS011;64107;49.248;7.006;2023-08-01T03:19:18;2.38;;;1.73;;
75526;SDS011;64107;49.248;7.006;2023-08-01T03:21:44;3.08;;;2.03;;
75526;SDS011;64107;49.248;7.006;2023-08-01T03:24:11;7.05;;;4.00;;
75526;SDS011;64107;49.248;7.006;2023-08-01T03:26:37;5.78;;;3.92;;
75526;SDS011;64107;49.248;7.006;2023-08-01T03:29:03;6.43;;;4.20;;
75526;SDS011;64107;49.248;7.006;2023-08-01T03:31:30;5.57;;;2.80;;
75526;SDS011;64107;49.248;7.006;2023-08-01T03:33:56;4.70;;;3.22;;
75526;SDS011;64107;49.248;7.006;2023-08-01T03:36:23;4.07;;;2.90;;
75526;SDS011;64107;49.248;7.006;2023-08-01T03:38:49;4.18;;;3.00;;
75526;SDS011;64107;49.248;7.006;2023-08-01T03:41:15;5.60;;;3.05;;
75526;SDS011;64107;49.248;7.006;2023-08-01T03:43:41;5.47;;;2.65;;
75526;SDS011;64107;49.248;7.006;2023-08-01T03:46:07;7.03;;;4.45;;
75526;SDS011;64107;49.248;7.006;2023-08-01T03:48:34;6.47;;;4.78;;
75526;SDS011;64107;49.248;7.006;2023-08-01T03:51:00;6.68;;;3.40;;
75526;SDS011;64107;49.248;7.006;2023-08-01T03:53:28;6.60;;;3.30;;
75526;SDS011;64107;49.248;7.006;2023-08-01T03:55:54;6.78;;;3.97;;
75526;SDS011;64107;49.248;7.006;2023-08-01T03:58:20;5.53;;;3.08;;
75526;SDS011;64107;49.248;7.006;2023-08-01T04:00:46;5.35;;;3.30;;
75526;SDS011;64107;49.248;7.006;2023-08-01T04:03:12;8.07;;;5.55;;
75526;SDS011;64107;49.248;7.006;2023-08-01T04:05:38;6.15;;;3.53;;
75526;SDS011;64107;49.248;7.006;2023-08-01T04:08:04;6.88;;;3.55;;
75526;SDS011;64107;49.248;7.006;2023-08-01T04:10:30;5.93;;;3.38;;
75526;SDS011;64107;49.248;7.006;2023-08-01T04:12:56;9.93;;;6.13;;
75526;SDS011;64107;49.248;7.006;2023-08-01T04:15:22;9.90;;;5.10;;
75526;SDS011;64107;49.248;7.006;2023-08-01T04:17:48;11.45;;;5.00;;
75526;SDS011;64107;49.248;7.006;2023-08-01T04:20:15;10.90;;;5.80;;
75526;SDS011;64107;49.248;7.006;2023-08-01T04:22:41;6.15;;;3.90;;
75526;SDS011;64107;49.248;7.006;2023-08-01T04:25:07;10.43;;;6.85;;
75526;SDS011;64107;49.248;7.006;2023-08-01T04:27:33;7.30;;;5.40;;
75526;SDS011;64107;49.248;7.006;2023-08-01T04:29:59;8.75;;;5.93;;
75526;SDS011;64107;49.248;7.006;2023-08-01T04:32:26;7.93;;;5.45;;
75526;SDS011;64107;49.248;7.006;2023-08-01T04:34:52;4.30;;;3.15;;
75526;SDS011;64107;49.248;7.006;2023-08-01T04:37:18;10.50;;;7.88;;
75526;SDS011;64107;49.248;7.006;2023-08-01T04:39:47;8.60;;;4.00;;
75526;SDS011;64107;49.248;7.006;2023-08-01T04:42:13;7.35;;;4.35;;
75526;SDS011;64107;49.248;7.006;2023-08-01T04:44:42;10.75;;;5.30;;
75526;SDS011;64107;49.248;7.006;2023-08-01T04:47:08;5.60;;;3.60;;
75526;SDS011;64107;49.248;7.006;2023-08-01T04:49:35;4.65;;;3.03;;
75526;SDS011;64107;49.248;7.006;2023-08-01T04:52:01;6.53;;;3.90;;
75526;SDS011;64107;49.248;7.006;2023-08-01T04:54:27;6.15;;;3.67;;
75526;SDS011;64107;49.248;7.006;2023-08-01T04:56:53;4.50;;;2.97;;
75526;SDS011;64107;49.248;7.006;2023-08-01T04:59:19;5.50;;;3.13;;
75526;SDS011;64107;49.248;7.006;2023-08-01T05:01:46;4.95;;;2.80;;
75526;SDS011;64107;49.248;7.006;2023-08-01T05:04:12;5.45;;;4.03;;
75526;SDS011;64107;49.248;7.006;2023-08-01T05:06:38;5.07;;;2.70;;
75526;SDS011;64107;49.248;7.006;2023-08-01T05:09:05;3.95;;;2.88;;
75526;SDS011;64107;49.248;7.006;2023-08-01T05:11:32;2.63;;;2.00;;
75526;SDS011;64107;49.248;7.006;2023-08-01T05:13:58;5.75;;;2.80;;
75526;SDS011;64107;49.248;7.006;2023-08-01T05:16:24;5.60;;;2.60;;
75526;SDS011;64107;49.248;7.006;2023-08-01T05:18:50;2.92;;;1.80;;
75526;SDS011;64107;49.248;7.006;2023-08-01T05:21:16;1.90;;;1.40;;
75526;SDS011;64107;49.248;7.006;2023-08-01T05:23:42;3.58;;;1.83;;
75526;SDS011;64107;49.248;7.006;2023-08-01T05:26:08;3.38;;;2.25;;
75526;SDS011;64107;49.248;7.006;2023-08-01T05:28:34;1.60;;;1.17;;
75526;SDS011;64107;49.248;7.006;2023-08-01T05:31:00;3.10;;;2.08;;
75526;SDS011;64107;49.248;7.006;2023-08-01T05:33:26;3.47;;;2.03;;
75526;SDS011;64107;49.248;7.006;2023-08-01T05:35:52;2.58;;;1.50;;
75526;SDS011;64107;49.248;7.006;2023-08-01T05:38:18;2.38;;;1.90;;
75526;SDS011;64107;49.248;7.006;2023-08-01T05:40:44;3.58;;;2.20;;
75526;SDS011;64107;49.248;7.006;2023-08-01T05:43:10;5.20;;;1.65;;
75526;SDS011;64107;49.248;7.006;2023-08-01T05:45:36;2.28;;;1.70;;
75526;SDS011;64107;49.248;7.006;2023-08-01T05:48:03;2.55;;;1.75;;
75526;SDS011;64107;49.248;7.006;2023-08-01T05:50:29;1.98;;;1.30;;
75526;SDS011;64107;49.248;7.006;2023-08-01T05:52:55;3.42;;;1.90;;
75526;SDS011;64107;49.248;7.006;2023-08-01T05:55:21;2.00;;;1.17;;
75526;SDS011;64107;49.248;7.006;2023-08-01T05:57:47;2.80;;;1.80;;
75526;SDS011;64107;49.248;7.006;2023-08-01T06:00:17;3.13;;;1.73;;
75526;SDS011;64107;49.248;7.006;2023-08-01T06:02:47;2.08;;;1.55;;
75526;SDS011;64107;49.248;7.006;2023-08-01T06:05:13;3.53;;;1.55;;
75526;SDS011;64107;49.248;7.006;2023-08-01T06:07:39;6.80;;;3.72;;
75526;SDS011;64107;49.248;7.006;2023-08-01T06:10:05;5.30;;;2.38;;
75526;SDS011;64107;49.248;7.006;2023-08-01T06:12:32;3.67;;;1.48;;
75526;SDS011;64107;49.248;7.006;2023-08-01T06:14:58;2.20;;;1.40;;
75526;SDS011;64107;49.248;7.006;2023-08-01T06:17:24;1.52;;;1.20;;
75526;SDS011;64107;49.248;7.006;2023-08-01T06:19:50;1.00;;;0.90;;
75526;SDS011;64107;49.248;7.006;2023-08-01T06:22:17;1.50;;;0.73;;
75526;SDS011;64107;49.248;7.006;2023-08-01T06:24:43;1.23;;;0.60;;
75526;SDS011;64107;49.248;7.006;2023-08-01T06:27:09;0.70;;;0.40;;
75526;SDS011;64107;49.248;7.006;2023-08-01T06:29:35;1.35;;;0.50;;
75526;SDS011;64107;49.248;7.006;2023-08-01T06:32:02;0.63;;;0.38;;
75526;SDS011;64107;49.248;7.006;2023-08-01T06:34:29;2.08;;;0.57;;
75526;SDS011;64107;49.248;7.006;2023-08-01T06:36:55;0.88;;;0.60;;
75526;SDS011;64107;49.248;7.006;2023-08-01T06:39:21;0.85;;;0.40;;
75526;SDS011;64107;49.248;7.006;2023-08-01T06:41:47;2.42;;;2.05;;
75526;SDS011;64107;49.248;7.006;2023-08-01T06:44:13;0.47;;;0.47;;
75526;SDS011;64107;49.248;7.006;2023-08-01T06:46:39;0.80;;;0.43;;
75526;SDS011;64107;49.248;7.006;2023-08-01T06:49:05;0.93;;;0.40;;
75526;SDS011;64107;49.248;7.006;2023-08-01T06:51:31;1.73;;;0.50;;
75526;SDS011;64107;49.248;7.006;2023-08-01T06:53:57;0.45;;;0.35;;
75526;SDS011;64107;49.248;7.006;2023-08-01T06:56:23;0.73;;;0.43;;
75526;SDS011;64107;49.248;7.006;2023-08-01T06:58:49;1.30;;;0.60;;
75526;SDS011;64107;49.248;7.006;2023-08-01T07:01:15;1.30;;;0.57;;
75526;SDS011;64107;49.248;7.006;2023-08-01T07:03:42;0.40;;;0.40;;
75526;SDS011;64107;49.248;7.006;2023-08-01T07:06:08;0.40;;;0.30;;
75526;SDS011;64107;49.248;7.006;2023-08-01T07:08:35;0.45;;;0.45;;
75526;SDS011;64107;49.248;7.006;2023-08-01T07:11:01;0.68;;;0.50;;
75526;SDS011;64107;49.248;7.006;2023-08-01T07:13:27;0.75;;;0.60;;
75526;SDS011;64107;49.248;7.006;2023-08-01T07:15:53;0.55;;;0.40;;
75526;SDS011;64107;49.248;7.006;2023-08-01T07:18:19;0.30;;;0.30;;
75526;SDS011;64107;49.248;7.006;2023-08-01T07:20:45;0.65;;;0.57;;
75526;SDS011;64107;49.248;7.006;2023-08-01T07:23:11;2.55;;;0.60;;
75526;SDS011;64107;49.248;7.006;2023-08-01T07:25:38;0.75;;;0.50;;
75526;SDS011;64107;49.248;7.006;2023-08-01T07:28:04;0.93;;;0.70;;
75526;SDS011;64107;49.248;7.006;2023-08-01T07:30:30;0.65;;;0.60;;
75526;SDS011;64107;49.248;7.006;2023-08-01T07:32:56;0.68;;;0.65;;
75526;SDS011;64107;49.248;7.006;2023-08-01T07:35:22;2.25;;;1.00;;
75526;SDS011;64107;49.248;7.006;2023-08-01T07:37:48;1.10;;;0.70;;
75526;SDS011;64107;49.248;7.006;2023-08-01T07:40:14;1.17;;;0.68;;
75526;SDS011;64107;49.248;7.006;2023-08-01T07:42:40;0.65;;;0.65;;
75526;SDS011;64107;49.248;7.006;2023-08-01T07:45:06;0.90;;;0.50;;
75526;SDS011;64107;49.248;7.006;2023-08-01T07:47:33;0.70;;;0.70;;
75526;SDS011;64107;49.248;7.006;2023-08-01T07:49:59;1.33;;;1.08;;
75526;SDS011;64107;49.248;7.006;2023-08-01T07:52:25;0.75;;;0.60;;
75526;SDS011;64107;49.248;7.006;2023-08-01T07:54:51;1.52;;;1.00;;
75526;SDS011;64107;49.248;7.006;2023-08-01T07:57:18;0.45;;;0.45;;
75526;SDS011;64107;49.248;7.006;2023-08-01T07:59:44;1.27;;;0.73;;
75526;SDS011;64107;49.248;7.006;2023-08-01T08:02:10;2.55;;;1.20;;
75526;SDS011;64107;49.248;7.006;2023-08-01T08:04:36;2.72;;;1.05;;
75526;SDS011;64107;49.248;7.006;2023-08-01T08:07:02;1.33;;;0.80;;
75526;SDS011;64107;49.248;7.006;2023-08-01T08:09:29;1.30;;;1.00;;
75526;SDS011;64107;49.248;7.006;2023-08-01T08:11:55;1.92;;;0.73;;
75526;SDS011;64107;49.248;7.006;2023-08-01T08:14:24;0.93;;;0.90;;
75526;SDS011;64107;49.248;7.006;2023-08-01T08:16:51;1.20;;;0.70;;
75526;SDS011;64107;49.248;7.006;2023-08-01T08:19:17;2.90;;;1.45;;
75526;SDS011;64107;49.248;7.006;2023-08-01T08:21:43;1.92;;;1.27;;
75526;SDS011;64107;49.248;7.006;2023-08-01T08:24:09;1.85;;;0.82;;
75526;SDS011;64107;49.248;7.006;2023-08-01T08:26:35;1.48;;;1.20;;
75526;SDS011;64107;49.248;7.006;2023-08-01T08:29:04;3.40;;;1.17;;
75526;SDS011;64107;49.248;7.006;2023-08-01T08:31:30;1.58;;;1.30;;
75526;SDS011;64107;49.248;7.006;2023-08-01T08:33:57;1.77;;;1.30;;
75526;SDS011;64107;49.248;7.006;2023-08-01T08:36:23;2.65;;;1.67;;
75526;SDS011;64107;49.248;7.006;2023-08-01T08:38:49;1.70;;;1.58;;
75526;SDS011;64107;49.248;7.006;2023-08-01T08:41:20;4.22;;;1.65;;
75526;SDS011;64107;49.248;7.006;2023-08-01T08:46:14;2.58;;;1.40;;
75526;SDS011;64107;49.248;7.006;2023-08-01T08:48:41;2.72;;;1.40;;
75526;SDS011;64107;49.248;7.006;2023-08-01T08:51:09;2.90;;;1.73;;
75526;SDS011;64107;49.248;7.006;2023-08-01T08:53:35;1.35;;;1.00;;
75526;SDS011;64107;49.248;7.006;2023-08-01T08:56:01;4.10;;;1.40;;
75526;SDS011;64107;49.248;7.006;2023-08-01T08:58:31;3.10;;;1.38;;
75526;SDS011;64107;49.248;7.006;2023-08-01T09:00:58;3.15;;;1.63;;
75526;SDS011;64107;49.248;7.006;2023-08-01T09:03:27;1.55;;;1.27;;
75526;SDS011;64107;49.248;7.006;2023-08-01T09:06:04;1.38;;;1.23;;
75526;SDS011;64107;49.248;7.006;2023-08-01T09:08:35;2.13;;;1.42;;
75526;SDS011;64107;49.248;7.006;2023-08-01T09:11:01;1.00;;;0.80;;
75526;SDS011;64107;49.248;7.006;2023-08-01T09:13:29;2.70;;;1.13;;
75526;SDS011;64107;49.248;7.006;2023-08-01T09:15:55;2.25;;;1.42;;
75526;SDS011;64107;49.248;7.006;2023-08-01T09:18:22;2.58;;;1.25;;
75526;SDS011;64107;49.248;7.006;2023-08-01T09:20:49;2.47;;;1.27;;
75526;SDS011;64107;49.248;7.006;2023-08-01T09:23:15;2.90;;;1.50;;
75526;SDS011;64107;49.248;7.006;2023-08-01T09:25:42;3.00;;;1.73;;
75526;SDS011;64107;49.248;7.006;2023-08-01T09:28:41;1.75;;;1.00;;
75526;SDS011;64107;49.248;7.006;2023-08-01T09:31:00;1.90;;;1.20;;
75526;SDS011;64107;49.248;7.006;2023-08-01T09:33:36;2.78;;;1.23;;
75526;SDS011;64107;49.248;7.006;2023-08-01T09:36:06;1.58;;;1.00;;
75526;SDS011;64107;49.248;7.006;2023-08-01T09:38:33;2.35;;;1.10;;
75526;SDS011;64107;49.248;7.006;2023-08-01T09:41:00;3.03;;;1.48;;
75526;SDS011;64107;49.248;7.006;2023-08-01T09:43:34;2.33;;;1.60;;
75526;SDS011;64107;49.248;7.006;2023-08-01T09:46:06;2.65;;;1.23;;
75526;SDS011;64107;49.248;7.006;2023-08-01T09:48:32;3.28;;;1.35;;
75526;SDS011;64107;49.248;7.006;2023-08-01T09:53:35;2.92;;;1.08;;
75526;SDS011;64107;49.248;7.006;2023-08-01T09:56:15;1.45;;;1.35;;
75526;SDS011;64107;49.248;7.006;2023-08-01T09:58:45;1.30;;;1.02;;
75526;SDS011;64107;49.248;7.006;2023-08-01T10:01:12;3.00;;;1.08;;
75526;SDS011;64107;49.248;7.006;2023-08-01T10:03:41;2.55;;;1.42;;
75526;SDS011;64107;49.248;7.006;2023-08-01T10:06:13;4.95;;;1.35;;
75526;SDS011;64107;49.248;7.006;2023-08-01T10:08:47;2.75;;;1.17;;
75526;SDS011;64107;49.248;7.006;2023-08-01T10:11:14;1.77;;;1.23;;
75526;SDS011;64107;49.248;7.006;2023-08-01T10:13:41;1.20;;;0.85;;
75526;SDS011;64107;49.248;7.006;2023-08-01T10:16:08;1.30;;;0.95;;
75526;SDS011;64107;49.248;7.006;2023-08-01T10:18:35;2.53;;;1.15;;
75526;SDS011;64107;49.248;7.006;2023-08-01T10:21:02;2.80;;;1.08;;
75526;SDS011;64107;49.248;7.006;2023-08-01T10:23:33;2.90;;;0.73;;
75526;SDS011;64107;49.248;7.006;2023-08-01T10:25:59;2.92;;;1.27;;
75526;SDS011;64107;49.248;7.006;2023-08-01T10:28:33;1.45;;;0.73;;
75526;SDS011;64107;49.248;7.006;2023-08-01T10:31:12;1.90;;;0.90;;
75526;SDS011;64107;49.248;7.006;2023-08-01T10:33:40;2.55;;;1.50;;
75526;SDS011;64107;49.248;7.006;2023-08-01T10:36:17;2.25;;;1.33;;
75526;SDS011;64107;49.248;7.006;2023-08-01T10:38:47;1.98;;;0.80;;
75526;SDS011;64107;49.248;7.006;2023-08-01T10:41:20;2.28;;;0.68;;
75526;SDS011;64107;49.248;7.006;2023-08-01T10:43:50;2.55;;;1.17;;
75526;SDS011;64107;49.248;7.006;2023-08-01T10:46:16;2.63;;;1.38;;
75526;SDS011;64107;49.248;7.006;2023-08-01T10:48:49;2.15;;;1.23;;
75526;SDS011;64107;49.248;7.006;2023-08-01T10:51:16;1.90;;;1.10;;
75526;SDS011;64107;49.248;7.006;2023-08-01T10:53:42;2.63;;;1.80;;
75526;SDS011;64107;49.248;7.006;2023-08-01T10:56:15;1.67;;;1.27;;
75526;SDS011;64107;49.248;7.006;2023-08-01T10:58:45;3.05;;;1.45;;
75526;SDS011;64107;49.248;7.006;2023-08-01T11:01:11;3.08;;;1.30;;
75526;SDS011;64107;49.248;7.006;2023-08-01T11:03:38;1.92;;;1.15;;
75526;SDS011;64107;49.248;7.006;2023-08-01T11:06:04;4.45;;;1.67;;
75526;SDS011;64107;49.248;7.006;2023-08-01T11:08:34;3.33;;;1.17;;
75526;SDS011;64107;49.248;7.006;2023-08-01T11:11:05;1.83;;;1.17;;
75526;SDS011;64107;49.248;7.006;2023-08-01T11:13:31;1.70;;;0.73;;
75526;SDS011;64107;49.248;7.006;2023-08-01T11:16:00;1.77;;;0.90;;
75526;SDS011;64107;49.248;7.006;2023-08-01T11:18:27;3.45;;;1.48;;
75526;SDS011;64107;49.248;7.006;2023-08-01T11:20:54;2.85;;;1.35;;
75526;SDS011;64107;49.248;7.006;2023-08-01T11:23:26;1.40;;;0.98;;
75526;SDS011;64107;49.248;7.006;2023-08-01T11:25:54;3.55;;;1.25;;
75526;SDS011;64107;49.248;7.006;2023-08-01T11:28:20;2.50;;;1.58;;
75526;SDS011;64107;49.248;7.006;2023-08-01T11:30:46;2.00;;;1.13;;
75526;SDS011;64107;49.248;7.006;2023-08-01T11:33:19;2.55;;;1.65;;
75526;SDS011;64107;49.248;7.006;2023-08-01T11:35:56;2.53;;;1.40;;
75526;SDS011;64107;49.248;7.006;2023-08-01T11:38:24;2.90;;;1.02;;
75526;SDS011;64107;49.248;7.006;2023-08-01T11:40:54;3.53;;;1.45;;
75526;SDS011;64107;49.248;7.006;2023-08-01T11:43:23;1.80;;;1.02;;
75526;SDS011;64107;49.248;7.006;2023-08-01T11:45:50;2.95;;;1.40;;
75526;SDS011;64107;49.248;7.006;2023-08-01T11:48:16;1.50;;;1.20;;
75526;SDS011;64107;49.248;7.006;2023-08-01T11:50:43;1.38;;;0.80;;
75526;SDS011;64107;49.248;7.006;2023-08-01T11:53:19;3.47;;;1.55;;
75526;SDS011;64107;49.248;7.006;2023-08-01T11:55:45;2.15;;;1.50;;
75526;SDS011;64107;49.248;7.006;2023-08-01T11:58:11;2.00;;;1.40;;
75526;SDS011;64107;49.248;7.006;2023-08-01T12:00:41;1.67;;;1.13;;
75526;SDS011;64107;49.248;7.006;2023-08-01T12:03:08;5.38;;;1.45;;
75526;SDS011;64107;49.248;7.006;2023-08-01T12:05:38;4.05;;;1.40;;
75526;SDS011;64107;49.248;7.006;2023-08-01T12:08:13;2.53;;;1.00;;
75526;SDS011;64107;49.248;7.006;2023-08-01T12:10:40;3.40;;;1.38;;
75526;SDS011;64107;49.248;7.006;2023-08-01T12:13:20;2.95;;;1.10;;
75526;SDS011;64107;49.248;7.006;2023-08-01T12:15:48;3.75;;;1.45;;
75526;SDS011;64107;49.248;7.006;2023-08-01T12:18:24;1.50;;;1.20;;
75526;SDS011;64107;49.248;7.006;2023-08-01T12:20:52;2.58;;;1.60;;
75526;SDS011;64107;49.248;7.006;2023-08-01T12:23:18;2.35;;;1.42;;
75526;SDS011;64107;49.248;7.006;2023-08-01T12:25:45;4.20;;;1.58;;
75526;SDS011;64107;49.248;7.006;2023-08-01T12:28:13;2.25;;;1.25;;
75526;SDS011;64107;49.248;7.006;2023-08-01T12:30:40;1.88;;;0.90;;
75526;SDS011;64107;49.248;7.006;2023-08-01T12:33:06;2.28;;;0.93;;
75526;SDS011;64107;49.248;7.006;2023-08-01T12:35:33;1.10;;;0.70;;
75526;SDS011;64107;49.248;7.006;2023-08-01T12:37:59;2.05;;;0.90;;
75526;SDS011;64107;49.248;7.006;2023-08-01T12:40:25;3.17;;;1.23;;
75526;SDS011;64107;49.248;7.006;2023-08-01T12:42:51;1.40;;;0.88;;
75526;SDS011;64107;49.248;7.006;2023-08-01T12:45:18;1.95;;;1.52;;
75526;SDS011;64107;49.248;7.006;2023-08-01T12:47:44;1.08;;;0.77;;
75526;SDS011;64107;49.248;7.006;2023-08-01T12:50:10;1.55;;;1.17;;
75526;SDS011;64107;49.248;7.006;2023-08-01T12:52:36;2.35;;;1.30;;
75526;SDS011;64107;49.248;7.006;2023-08-01T12:55:02;3.47;;;1.33;;
75526;SDS011;64107;49.248;7.006;2023-08-01T12:57:28;1.30;;;0.88;;
75526;SDS011;64107;49.248;7.006;2023-08-01T12:59:54;3.92;;;1.13;;
75526;SDS011;64107;49.248;7.006;2023-08-01T13:02:20;1.35;;;0.70;;
75526;SDS011;64107;49.248;7.006;2023-08-01T13:04:46;2.88;;;1.25;;
75526;SDS011;64107;49.248;7.006;2023-08-01T13:07:12;2.30;;;1.10;;
75526;SDS011;64107;49.248;7.006;2023-08-01T13:09:39;2.47;;;1.27;;
75526;SDS011;64107;49.248;7.006;2023-08-01T13:12:05;3.30;;;1.13;;
75526;SDS011;64107;49.248;7.006;2023-08-01T13:14:31;1.52;;;0.88;;
75526;SDS011;64107;49.248;7.006;2023-08-01T13:16:58;0.82;;;0.80;;
75526;SDS011;64107;49.248;7.006;2023-08-01T13:19:24;2.88;;;1.40;;
75526;SDS011;64107;49.248;7.006;2023-08-01T13:21:50;3.00;;;1.45;;
75526;SDS011;64107;49.248;7.006;2023-08-01T13:24:16;4.13;;;0.90;;
75526;SDS011;64107;49.248;7.006;2023-08-01T13:26:42;2.10;;;0.80;;
75526;SDS011;64107;49.248;7.006;2023-08-01T13:29:08;1.48;;;0.80;;
75526;SDS011;64107;49.248;7.006;2023-08-01T13:31:35;2.47;;;0.82;;
75526;SDS011;64107;49.248;7.006;2023-08-01T13:34:01;1.85;;;1.33;;
75526;SDS011;64107;49.248;7.006;2023-08-01T13:36:27;2.03;;;1.20;;
75526;SDS011;64107;49.248;7.006;2023-08-01T13:38:53;1.83;;;1.00;;
75526;SDS011;64107;49.248;7.006;2023-08-01T13:41:19;1.80;;;0.90;;
75526;SDS011;64107;49.248;7.006;2023-08-01T13:43:45;1.88;;;0.90;;
75526;SDS011;64107;49.248;7.006;2023-08-01T13:46:17;1.45;;;1.10;;
75526;SDS011;64107;49.248;7.006;2023-08-01T13:48:47;2.92;;;1.30;;
75526;SDS011;64107;49.248;7.006;2023-08-01T13:51:13;1.65;;;1.45;;
75526;SDS011;64107;49.248;7.006;2023-08-01T13:53:39;1.95;;;1.23;;
75526;SDS011;64107;49.248;7.006;2023-08-01T13:56:07;1.92;;;1.17;;
75526;SDS011;64107;49.248;7.006;2023-08-01T13:58:39;1.17;;;0.90;;
75526;SDS011;64107;49.248;7.006;2023-08-01T14:01:06;1.48;;;1.13;;
75526;SDS011;64107;49.248;7.006;2023-08-01T14:03:33;1.48;;;1.08;;
75526;SDS011;64107;49.248;7.006;2023-08-01T14:06:05;1.02;;;0.77;;
75526;SDS011;64107;49.248;7.006;2023-08-01T14:08:32;1.10;;;0.80;;
75526;SDS011;64107;49.248;7.006;2023-08-01T14:10:58;1.70;;;0.90;;
75526;SDS011;64107;49.248;7.006;2023-08-01T14:13:25;2.55;;;1.35;;
75526;SDS011;64107;49.248;7.006;2023-08-01T14:15:51;3.72;;;0.98;;
75526;SDS011;64107;49.248;7.006;2023-08-01T14:18:17;1.52;;;1.27;;
75526;SDS011;64107;49.248;7.006;2023-08-01T14:20:43;2.25;;;1.63;;
75526;SDS011;64107;49.248;7.006;2023-08-01T14:23:09;6.82;;;1.13;;
75526;SDS011;64107;49.248;7.006;2023-08-01T14:25:35;1.80;;;1.33;;
75526;SDS011;64107;49.248;7.006;2023-08-01T14:28:01;2.10;;;1.50;;
75526;SDS011;64107;49.248;7.006;2023-08-01T14:30:28;2.38;;;0.98;;
75526;SDS011;64107;49.248;7.006;2023-08-01T14:33:03;1.30;;;0.80;;
75526;SDS011;64107;49.248;7.006;2023-08-01T14:35:30;1.17;;;0.95;;
75526;SDS011;64107;49.248;7.006;2023-08-01T14:37:57;2.72;;;1.45;;
75526;SDS011;64107;49.248;7.006;2023-08-01T14:40:23;3.25;;;1.42;;
75526;SDS011;64107;49.248;7.006;2023-08-01T14:42:50;1.92;;;1.17;;
75526;SDS011;64107;49.248;7.006;2023-08-01T14:45:16;1.73;;;1.48;;
75526;SDS011;64107;49.248;7.006;2023-08-01T14:47:43;2.30;;;1.70;;
75526;SDS011;64107;49.248;7.006;2023-08-01T14:50:10;2.85;;;1.48;;
75526;SDS011;64107;49.248;7.006;2023-08-01T14:52:36;4.45;;;1.75;;